Chanthaburi, Thailand
Current Conditions -  °F | °C
As of 1:30 PM on Wednesday 22 Oct 2014 (Local Time) from VTBU Reporting Station
Thunderstorm Thunderstorm  
Wind Chill: 81°   Ceiling: 30000
Heat Index: 86°   Visibility: 2.5mi
Dew Point: 75°   Wind: 5mph
Humidity: 84%   Direction: 310°NW
Pressure: 29.83"   Gusts: NA
Location:  12.61°N, 102.11°E
Report Text: VTBU 220630Z 31004KT 4000 -TSRA FEW018CB SCT035 BKN300 27/24 Q1010 A2985 TS OVER AD LTG
Loading
Personal Weather Stations






























Interactive Weather Map
Tropical Storm Tracking
New forecast layout! Learn more

10-Day Weather Forecast

Advertisements
Track Severe Weather on mobile